Time;durP1;ratioP1;P1;durP2;ratioP2;P2;SDS_P1;SDS_P2;PMS_P1;PMS_P2;Temp;Humidity;BMP_temperature;BMP_pressure;BME280_temperature;BME280_humidity;BME280_pressure;Samples;Min_cycle;Max_cycle;Signal;HPM_P1;HPM_P2
2022/02/08 00:00:23;;;;;;;5.23;1.47;;;;;;;;;;4995075;28;20445;-69
2022/02/08 00:02:52;;;;;;;7.80;2.10;;;;;;;;;;4994638;28;20286;-69
2022/02/08 00:05:19;;;;;;;10.33;1.70;;;;;;;;;;4990837;28;20030;-69
2022/02/08 00:07:48;;;;;;;4.47;1.67;;;;;;;;;;4983901;28;20144;-69
2022/02/08 00:10:13;;;;;;;9.30;1.80;;;;;;;;;;4980702;28;20275;-69
2022/02/08 00:12:39;;;;;;;5.00;1.50;;;;;;;;;;4989967;28;20026;-69
2022/02/08 00:15:04;;;;;;;10.50;2.30;;;;;;;;;;4992931;28;20033;-69
2022/02/08 00:17:29;;;;;;;22.73;1.70;;;;;;;;;;5010823;28;20568;-69
2022/02/08 00:19:55;;;;;;;8.10;1.50;;;;;;;;;;5014889;28;20374;-69
2022/02/08 00:22:20;;;;;;;6.87;1.83;;;;;;;;;;5013856;28;20045;-69
2022/02/08 00:24:45;;;;;;;8.77;1.97;;;;;;;;;;5009957;28;20030;-69
2022/02/08 00:27:10;;;;;;;4.17;1.77;;;;;;;;;;5012506;28;20060;-69
2022/02/08 00:29:36;;;;;;;7.20;1.67;;;;;;;;;;5014672;28;20035;-69
2022/02/08 00:32:01;;;;;;;11.67;1.70;;;;;;;;;;5012327;28;20565;-69
2022/02/08 00:34:27;;;;;;;7.40;1.93;;;;;;;;;;5007864;28;20493;-69
2022/02/08 00:36:52;;;;;;;8.73;1.83;;;;;;;;;;5010058;28;20109;-69
2022/02/08 00:39:17;;;;;;;5.40;2.23;;;;;;;;;;5013098;28;20033;-69
2022/02/08 00:41:43;;;;;;;5.77;2.37;;;;;;;;;;5015292;28;20210;-69
2022/02/08 00:44:13;;;;;;;14.77;2.63;;;;;;;;;;5016782;28;20675;-69
2022/02/08 00:46:59;;;;;;;6.83;2.07;;;;;;;;;;5009881;28;20177;-69
2022/02/08 00:49:31;;;;;;;8.90;2.50;;;;;;;;;;5007271;28;20022;-69
2022/02/08 00:52:04;;;;;;;9.35;1.83;;;;;;;;;;5015254;28;20030;-69
2022/02/08 00:54:30;;;;;;;12.10;2.53;;;;;;;;;;5011681;28;20394;-69
2022/02/08 00:56:55;;;;;;;8.20;2.10;;;;;;;;;;5014604;28;20030;-69
2022/02/08 00:59:20;;;;;;;20.73;2.43;;;;;;;;;;5015915;28;20025;-69
2022/02/08 01:01:45;;;;;;;8.40;1.90;;;;;;;;;;5015244;28;20254;-69
2022/02/08 01:04:12;;;;;;;9.50;2.37;;;;;;;;;;5013707;28;20047;-69
2022/02/08 01:06:38;;;;;;;10.53;2.13;;;;;;;;;;5015552;28;20021;-69
2022/02/08 01:09:13;;;;;;;7.00;2.07;;;;;;;;;;5015894;28;20150;-69
2022/02/08 01:11:38;;;;;;;8.87;2.50;;;;;;;;;;5015297;28;20516;-69
2022/02/08 01:14:04;;;;;;;12.33;3.27;;;;;;;;;;5009175;28;20029;-69
2022/02/08 01:16:30;;;;;;;9.43;2.60;;;;;;;;;;5011581;28;20207;-69
2022/02/08 01:18:56;;;;;;;7.83;2.20;;;;;;;;;;5009006;28;20025;-69
2022/02/08 01:21:23;;;;;;;11.00;2.30;;;;;;;;;;5008956;28;20018;-69
2022/02/08 01:23:48;;;;;;;16.87;3.80;;;;;;;;;;5011974;28;20018;-69
2022/02/08 01:26:16;;;;;;;8.30;1.90;;;;;;;;;;5010844;28;20187;-69
2022/02/08 01:31:18;;;;;;;9.60;2.70;;;;;;;;;;5013439;28;20103;-69
2022/02/08 01:34:10;;;;;;;10.00;2.63;;;;;;;;;;5013075;28;20092;-69
2022/02/08 01:44:11;;;;;;;9.93;3.67;;;;;;;;;;5012928;28;20060;-69
2022/02/08 01:46:55;;;;;;;11.20;4.20;;;;;;;;;;5013996;28;20588;-69
2022/02/08 01:51:49;;;;;;;21.50;5.17;;;;;;;;;;5013918;28;20048;-69
2022/02/08 01:54:14;;;;;;;15.47;5.47;;;;;;;;;;5000069;28;20394;-69
2022/02/08 01:56:39;;;;;;;7.30;3.60;;;;;;;;;;5001085;28;20029;-69
2022/02/08 01:59:05;;;;;;;18.73;5.60;;;;;;;;;;5000382;28;20030;-69
2022/02/08 02:01:30;;;;;;;14.10;5.33;;;;;;;;;;4999966;28;20383;-66
2022/02/08 02:03:55;;;;;;;11.23;4.73;;;;;;;;;;5011706;23;20064;-74
2022/02/08 02:06:21;;;;;;;18.97;6.00;;;;;;;;;;5004143;28;20513;-74
2022/02/08 02:08:47;;;;;;;14.97;4.63;;;;;;;;;;5006617;28;20166;-73
2022/02/08 02:11:12;;;;;;;16.00;6.30;;;;;;;;;;5005223;28;20064;-74
2022/02/08 02:13:49;;;;;;;18.37;5.83;;;;;;;;;;5008870;28;20317;-74
2022/02/08 02:16:17;;;;;;;18.33;5.07;;;;;;;;;;5006950;28;20469;-74
2022/02/08 02:18:42;;;;;;;29.77;6.13;;;;;;;;;;5024599;28;20014;-74
2022/02/08 02:21:07;;;;;;;28.27;7.07;;;;;;;;;;5013277;28;20131;-75
2022/02/08 02:23:33;;;;;;;20.23;7.37;;;;;;;;;;5010951;28;20104;-74
2022/02/08 02:25:58;;;;;;;16.83;6.17;;;;;;;;;;5010433;28;20241;-74
2022/02/08 02:28:25;;;;;;;15.67;6.13;;;;;;;;;;5005279;28;20786;-74
2022/02/08 02:30:50;;;;;;;15.77;6.57;;;;;;;;;;5012125;28;20125;-74
2022/02/08 02:33:16;;;;;;;22.83;6.57;;;;;;;;;;5010936;28;20248;-75
2022/02/08 02:35:43;;;;;;;23.47;7.27;;;;;;;;;;5006665;28;20036;-74
2022/02/08 02:38:08;;;;;;;26.33;6.10;;;;;;;;;;5011266;28;20029;-74
2022/02/08 02:40:34;;;;;;;22.73;7.63;;;;;;;;;;5013713;28;20134;-74
2022/02/08 02:43:00;;;;;;;18.47;7.60;;;;;;;;;;5015674;28;20535;-74
2022/02/08 02:45:25;;;;;;;19.30;6.00;;;;;;;;;;5008945;28;20018;-74
2022/02/08 02:47:52;;;;;;;13.27;5.37;;;;;;;;;;5014252;28;20549;-73
2022/02/08 02:50:21;;;;;;;19.87;6.40;;;;;;;;;;5012748;28;20353;-74
2022/02/08 02:52:46;;;;;;;17.07;6.83;;;;;;;;;;5017285;28;20125;-73
2022/02/08 02:55:14;;;;;;;13.60;5.13;;;;;;;;;;5017664;28;20093;-73
2022/02/08 02:57:40;;;;;;;19.60;6.77;;;;;;;;;;5010285;28;20289;-74
2022/02/08 03:00:11;;;;;;;20.53;6.83;;;;;;;;;;5013612;28;20037;-74
2022/02/08 03:02:48;;;;;;;19.53;7.70;;;;;;;;;;5002978;28;20049;-74
2022/02/08 03:18:40;;;;;;;23.30;8.40;;;;;;;;;;4990597;28;20273;-75
2022/02/08 03:21:06;;;;;;;25.87;9.07;;;;;;;;;;4987534;28;20026;-75
2022/02/08 03:23:31;;;;;;;21.50;7.50;;;;;;;;;;4983794;28;20029;-75
2022/02/08 03:25:57;;;;;;;23.87;7.97;;;;;;;;;;4995475;28;20022;-75
2022/02/08 03:28:22;;;;;;;20.57;8.63;;;;;;;;;;4990284;28;20049;-74
2022/02/08 03:30:47;;;;;;;23.50;8.23;;;;;;;;;;4989295;28;20030;-75
2022/02/08 03:33:13;;;;;;;22.27;8.20;;;;;;;;;;4988968;28;20628;-75
2022/02/08 03:35:38;;;;;;;23.20;8.43;;;;;;;;;;4990750;28;20022;-75
2022/02/08 03:38:06;;;;;;;19.30;8.03;;;;;;;;;;4988724;28;20269;-75
2022/02/08 03:40:39;;;;;;;19.87;6.93;;;;;;;;;;4987084;28;20109;-76
2022/02/08 03:43:26;;;;;;;22.53;7.30;;;;;;;;;;4998701;28;20049;-75
2022/02/08 03:45:55;;;;;;;20.57;8.97;;;;;;;;;;4991499;28;20065;-75
2022/02/08 03:48:23;;;;;;;21.60;8.23;;;;;;;;;;4990761;28;20508;-74
2022/02/08 03:50:55;;;;;;;17.97;6.77;;;;;;;;;;4990152;28;20022;-74
2022/02/08 03:53:22;;;;;;;22.90;7.57;;;;;;;;;;4985896;28;20026;-74
2022/02/08 03:55:47;;;;;;;24.47;8.03;;;;;;;;;;4985728;28;20398;-74
2022/02/08 03:58:13;;;;;;;25.40;8.37;;;;;;;;;;4982522;28;20171;-74
2022/02/08 04:00:58;;;;;;;17.80;7.20;;;;;;;;;;4991768;28;20026;-74
2022/02/08 04:03:26;;;;;;;17.63;7.17;;;;;;;;;;4991198;28;20053;-74
2022/02/08 04:05:53;;;;;;;15.90;7.03;;;;;;;;;;4985390;28;20161;-74
2022/02/08 04:08:20;;;;;;;17.37;7.53;;;;;;;;;;4985155;28;20018;-73
2022/02/08 04:10:45;;;;;;;20.23;6.97;;;;;;;;;;4984505;28;20482;-74
2022/02/08 04:37:45;;;;;;;16.97;6.37;;;;;;;;;;5013738;28;20064;-74
2022/02/08 04:47:24;;;;;;;15.43;7.57;;;;;;;;;;5000803;28;20191;-74
2022/02/08 04:49:52;;;;;;;18.03;7.60;;;;;;;;;;5009417;28;20041;-74
2022/02/08 04:52:19;;;;;;;18.00;8.10;;;;;;;;;;5009649;28;20298;-74
2022/02/08 05:26:27;;;;;;;20.30;6.77;;;;;;;;;;4988157;28;20344;-73
2022/02/08 05:27:17;;;;;;;21.43;7.97;;;;;;;;;;4983585;28;20040;-74
2022/02/08 05:35:27;;;;;;;25.37;9.17;;;;;;;;;;4988606;28;20053;-74
2022/02/08 05:46:26;;;;;;;22.50;8.60;;;;;;;;;;4988796;28;20040;-74
2022/02/08 05:48:49;;;;;;;28.73;9.77;;;;;;;;;;4989768;28;20033;-74
2022/02/08 05:51:21;;;;;;;28.40;9.17;;;;;;;;;;4983623;28;20030;-74
2022/02/08 05:53:47;;;;;;;28.00;10.13;;;;;;;;;;4990757;28;20030;-74
2022/02/08 05:56:14;;;;;;;22.23;8.43;;;;;;;;;;4989821;28;20387;-73
2022/02/08 05:58:44;;;;;;;23.87;8.13;;;;;;;;;;4979098;28;20415;-74
2022/02/08 06:01:10;;;;;;;27.83;9.50;;;;;;;;;;4984093;28;20113;-74
2022/02/08 06:03:35;;;;;;;30.03;9.90;;;;;;;;;;4984231;28;20149;-74
2022/02/08 06:06:00;;;;;;;30.97;11.03;;;;;;;;;;4994650;28;20382;-74
2022/02/08 06:08:26;;;;;;;18.43;8.70;;;;;;;;;;4979778;28;20602;-73
2022/02/08 06:11:02;;;;;;;24.70;10.23;;;;;;;;;;4980520;28;20022;-74
2022/02/08 06:13:29;;;;;;;27.43;10.00;;;;;;;;;;4982127;28;20299;-74
2022/02/08 06:16:01;;;;;;;31.87;9.70;;;;;;;;;;4987961;28;20025;-74
2022/02/08 06:18:27;;;;;;;21.77;7.75;;;;;;;;;;4991909;28;20014;-74
2022/02/08 06:20:53;;;;;;;23.20;8.80;;;;;;;;;;4984937;28;20053;-73
2022/02/08 06:23:18;;;;;;;24.90;9.80;;;;;;;;;;4987347;28;20270;-74
2022/02/08 06:25:43;;;;;;;32.20;9.80;;;;;;;;;;4992029;28;20069;-73
2022/02/08 06:28:10;;;;;;;24.00;9.90;;;;;;;;;;4983699;28;20029;-73
2022/02/08 06:30:36;;;;;;;24.87;9.30;;;;;;;;;;4987555;28;20091;-74
2022/02/08 06:33:01;;;;;;;20.53;8.77;;;;;;;;;;4984754;28;20026;-73
2022/02/08 06:35:29;;;;;;;32.53;9.50;;;;;;;;;;4986152;28;20049;-74
2022/02/08 06:37:57;;;;;;;25.77;9.20;;;;;;;;;;4992502;28;20018;-73
2022/02/08 06:40:22;;;;;;;37.10;10.20;;;;;;;;;;4990229;28;20030;-73
2022/02/08 06:42:47;;;;;;;30.57;9.67;;;;;;;;;;4992008;28;20033;-73
2022/02/08 06:45:15;;;;;;;27.60;10.33;;;;;;;;;;4992599;28;20026;-74
2022/02/08 06:47:42;;;;;;;19.80;7.97;;;;;;;;;;4990258;28;20442;-73
2022/02/08 06:50:08;;;;;;;21.63;7.90;;;;;;;;;;4989858;28;20021;-74
2022/02/08 06:52:33;;;;;;;26.57;10.13;;;;;;;;;;4987069;28;20018;-74
2022/02/08 06:55:00;;;;;;;21.97;8.70;;;;;;;;;;4984374;28;20422;-73
2022/02/08 06:57:26;;;;;;;23.40;8.97;;;;;;;;;;4991475;28;20105;-73
2022/02/08 06:59:54;;;;;;;24.53;9.33;;;;;;;;;;4993862;28;20658;-74
2022/02/08 07:02:20;;;;;;;17.30;7.27;;;;;;;;;;4995673;28;20041;-72
2022/02/08 07:04:45;;;;;;;17.47;7.77;;;;;;;;;;4991503;28;20266;-74
2022/02/08 07:07:12;;;;;;;23.47;8.00;;;;;;;;;;4984568;28;20697;-73
2022/02/08 07:09:38;;;;;;;24.50;8.50;;;;;;;;;;4982590;28;20077;-74
2022/02/08 07:12:04;;;;;;;22.80;8.43;;;;;;;;;;4990272;28;20021;-74
2022/02/08 07:14:32;;;;;;;18.50;7.50;;;;;;;;;;4990181;28;20186;-73
2022/02/08 07:16:57;;;;;;;25.20;7.83;;;;;;;;;;4996679;28;20105;-73
2022/02/08 07:19:22;;;;;;;17.37;7.37;;;;;;;;;;4988872;28;20061;-73
2022/02/08 07:21:47;;;;;;;17.80;7.53;;;;;;;;;;4985161;28;20030;-73
2022/02/08 07:24:16;;;;;;;16.63;7.80;;;;;;;;;;4987986;28;20065;-72
2022/02/08 07:26:41;;;;;;;20.70;8.00;;;;;;;;;;4986279;28;20536;-73
2022/02/08 07:29:07;;;;;;;20.93;8.73;;;;;;;;;;4983767;28;20018;-74
2022/02/08 07:31:39;;;;;;;21.77;8.00;;;;;;;;;;4991455;28;20026;-74
2022/02/08 07:34:18;;;;;;;20.70;6.57;;;;;;;;;;4987285;28;20021;-74
2022/02/08 07:36:50;;;;;;;21.80;8.50;;;;;;;;;;4991994;28;20108;-73
2022/02/08 07:39:25;;;;;;;19.57;7.47;;;;;;;;;;4985692;28;20014;-73
2022/02/08 07:41:50;;;;;;;16.23;7.17;;;;;;;;;;4987999;28;20037;-74
2022/02/08 07:44:15;;;;;;;20.57;7.27;;;;;;;;;;4981275;28;20027;-73
2022/02/08 07:46:41;;;;;;;21.53;8.00;;;;;;;;;;4987924;28;20036;-74
2022/02/08 07:49:06;;;;;;;23.27;7.53;;;;;;;;;;4988538;28;20044;-72
2022/02/08 07:51:33;;;;;;;18.90;7.00;;;;;;;;;;4988723;28;20023;-73
2022/02/08 07:53:59;;;;;;;19.07;6.30;;;;;;;;;;4982641;28;20527;-73
2022/02/08 07:56:25;;;;;;;13.07;5.80;;;;;;;;;;4989372;28;20109;-73
2022/02/08 07:58:50;;;;;;;16.67;6.43;;;;;;;;;;4988505;28;20314;-73
2022/02/08 08:01:15;;;;;;;14.93;6.23;;;;;;;;;;4987238;28;20030;-73
2022/02/08 08:03:41;;;;;;;16.63;6.87;;;;;;;;;;4995966;28;20500;-73
2022/02/08 08:06:08;;;;;;;16.67;6.10;;;;;;;;;;4985898;28;20033;-74
2022/02/08 08:08:33;;;;;;;16.97;6.63;;;;;;;;;;4990944;28;20161;-73
2022/02/08 08:11:00;;;;;;;14.43;6.07;;;;;;;;;;4990145;28;20548;-73
2022/02/08 08:13:26;;;;;;;15.03;6.20;;;;;;;;;;4987556;28;20710;-73
2022/02/08 08:15:58;;;;;;;15.13;5.73;;;;;;;;;;4982472;28;20471;-74
2022/02/08 08:20:58;;;;;;;17.13;5.57;;;;;;;;;;4991826;28;20421;-73
2022/02/08 08:23:23;;;;;;;13.37;5.03;;;;;;;;;;4983077;28;20026;-73
2022/02/08 08:25:50;;;;;;;15.07;5.80;;;;;;;;;;4982386;28;20026;-73
2022/02/08 08:28:15;;;;;;;16.37;5.63;;;;;;;;;;4986162;28;20553;-73
2022/02/08 08:30:41;;;;;;;12.93;5.73;;;;;;;;;;4991812;28;20357;-74
2022/02/08 08:33:07;;;;;;;13.70;4.90;;;;;;;;;;4983486;28;20573;-73
2022/02/08 08:35:34;;;;;;;13.00;4.87;;;;;;;;;;4989550;28;20363;-74
2022/02/08 08:38:03;;;;;;;10.70;4.93;;;;;;;;;;4989491;28;20026;-73
2022/02/08 08:44:07;;;;;;;10.33;5.40;;;;;;;;;;4995984;28;20034;-73
2022/02/08 08:53:57;;;;;;;14.23;4.60;;;;;;;;;;5014091;28;20034;-74
2022/02/08 08:56:22;;;;;;;9.63;4.40;;;;;;;;;;5014090;28;20382;-73
2022/02/08 08:58:47;;;;;;;13.17;4.87;;;;;;;;;;5014057;28;20079;-73
2022/02/08 09:01:13;;;;;;;12.83;4.50;;;;;;;;;;5012108;28;20588;-73
2022/02/08 09:03:39;;;;;;;10.57;4.23;;;;;;;;;;5014756;28;20060;-73
2022/02/08 09:06:04;;;;;;;12.13;3.97;;;;;;;;;;5013279;28;20107;-75
2022/02/08 09:08:33;;;;;;;10.27;4.40;;;;;;;;;;5011923;28;20056;-75
2022/02/08 09:16:41;;;;;;;8.60;3.60;;;;;;;;;;4973355;28;20115;-73
2022/02/08 09:19:32;;;;;;;18.35;4.28;;;;;;;;;;4975362;28;20080;-73
2022/02/08 09:30:02;;;;;;;7.87;3.17;;;;;;;;;;4951009;28;20030;-72
2022/02/08 09:32:40;;;;;;;8.63;3.60;;;;;;;;;;4959893;28;20403;-73
2022/02/08 09:35:09;;;;;;;10.83;3.20;;;;;;;;;;4951204;28;20067;-73
2022/02/08 09:37:34;;;;;;;7.33;2.90;;;;;;;;;;4953540;28;20061;-73
2022/02/08 09:40:00;;;;;;;11.50;3.77;;;;;;;;;;4952409;28;20058;-73
2022/02/08 09:42:25;;;;;;;14.33;3.50;;;;;;;;;;4952606;28;20387;-73
2022/02/08 09:44:52;;;;;;;8.87;3.30;;;;;;;;;;4947711;28;20566;-72
2022/02/08 09:47:21;;;;;;;9.57;3.27;;;;;;;;;;4950979;28;20050;-74
2022/02/08 09:49:55;;;;;;;9.37;2.90;;;;;;;;;;4947995;28;20286;-75
2022/02/08 09:52:21;;;;;;;7.43;2.50;;;;;;;;;;4980711;28;20251;-74
2022/02/08 09:54:47;;;;;;;10.47;2.60;;;;;;;;;;4995483;28;20402;-75
2022/02/08 09:57:12;;;;;;;16.80;3.13;;;;;;;;;;4988814;28;20423;-74
2022/02/08 09:59:38;;;;;;;9.90;3.17;;;;;;;;;;4986969;28;20246;-74
2022/02/08 10:02:03;;;;;;;7.60;2.60;;;;;;;;;;4989424;28;20038;-74
2022/02/08 10:04:29;;;;;;;5.30;2.30;;;;;;;;;;4986628;28;20487;-74
2022/02/08 10:06:54;;;;;;;7.77;2.40;;;;;;;;;;4987297;28;20556;-74
2022/02/08 10:09:29;;;;;;;5.80;2.30;;;;;;;;;;4994578;28;20589;-75
2022/02/08 10:11:57;;;;;;;7.17;2.10;;;;;;;;;;4992487;28;20041;-75
2022/02/08 10:14:51;;;;;;;11.20;3.23;;;;;;;;;;4993377;28;20508;-74
2022/02/08 10:22:49;;;;;;;6.13;2.30;;;;;;;;;;4995032;28;20095;-75
2022/02/08 10:25:25;;;;;;;9.90;2.60;;;;;;;;;;4991191;28;20057;-74
2022/02/08 10:28:02;;;;;;;8.17;2.23;;;;;;;;;;4988574;28;20110;-75
2022/02/08 10:38:47;;;;;;;10.07;2.23;;;;;;;;;;5029087;28;20021;-74
2022/02/08 10:41:13;;;;;;;4.10;1.80;;;;;;;;;;5028348;28;20468;-75
2022/02/08 10:43:39;;;;;;;7.77;1.83;;;;;;;;;;5024687;28;20617;-74
2022/02/08 10:46:04;;;;;;;4.17;1.40;;;;;;;;;;5032533;28;20052;-74
2022/02/08 10:48:30;;;;;;;12.77;1.40;;;;;;;;;;5031975;28;20539;-75
2022/02/08 10:50:58;;;;;;;8.77;1.63;;;;;;;;;;5027295;28;20124;-75
2022/02/08 10:53:25;;;;;;;11.20;2.20;;;;;;;;;;5024379;28;20026;-75
2022/02/08 10:56:01;;;;;;;8.90;1.77;;;;;;;;;;5023411;28;20489;-73
2022/02/08 10:58:46;;;;;;;7.93;1.40;;;;;;;;;;5024762;28;20645;-73
2022/02/08 11:01:20;;;;;;;4.80;1.77;;;;;;;;;;5031355;28;20124;-74
2022/02/08 11:03:51;;;;;;;9.47;1.40;;;;;;;;;;5022282;28;20060;-73
2022/02/08 11:14:03;;;;;;;;;;;;;;;;;;4991495;28;20121;-75
2022/02/08 11:16:43;;;;;;;13.53;2.60;;;;;;;;;;4988009;28;20045;-74
2022/02/08 11:19:25;;;;;;;9.07;2.10;;;;;;;;;;4994713;28;20235;-73
2022/02/08 11:22:03;;;;;;;5.32;1.48;;;;;;;;;;4991157;28;20029;-74
2022/02/08 11:24:41;;;;;;;10.70;1.80;;;;;;;;;;4994427;28;20542;-74
2022/02/08 11:27:15;;;;;;;7.60;2.17;;;;;;;;;;4992477;28;20029;-75
2022/02/08 11:29:49;;;;;;;5.97;2.00;;;;;;;;;;4988357;28;20112;-74
2022/02/08 11:44:04;;;;;;;6.87;2.17;;;;;;;;;;5022584;28;20226;-75
2022/02/08 11:52:03;;;;;;;5.83;1.60;;;;;;;;;;5020219;28;20029;-74
2022/02/08 12:07:34;;;;;;;5.63;1.70;;;;;;;;;;5028070;28;20017;-75
2022/02/08 12:10:13;;;;;;;5.43;1.37;;;;;;;;;;5029012;28;20024;-75
2022/02/08 12:31:53;;;;;;;7.40;1.50;;;;;;;;;;4984265;28;20026;-75
2022/02/08 13:01:43;;;;;;;5.37;1.73;;;;;;;;;;4990553;28;20053;-75
2022/02/08 14:06:58;;;;;;;5.67;1.67;;;;;;;;;;4982875;28;20022;-75
2022/02/08 14:17:39;;;;;;;3.67;1.60;;;;;;;;;;4988474;28;20038;-76
2022/02/08 14:23:05;;;;;;;8.53;1.77;;;;;;;;;;4976749;28;20100;-76
2022/02/08 14:25:43;;;;;;;6.40;1.50;;;;;;;;;;4978266;28;20065;-75
2022/02/08 14:31:12;;;;;;;6.00;1.70;;;;;;;;;;4982518;28;20041;-76
2022/02/08 14:58:34;;;;;;;3.50;1.30;;;;;;;;;;4983927;28;20490;-75
2022/02/08 15:10:39;;;;;;;4.30;1.57;;;;;;;;;;5000289;28;20040;-76
2022/02/08 15:13:05;;;;;;;6.70;1.57;;;;;;;;;;4999304;28;20018;-76
2022/02/08 15:17:58;;;;;;;4.33;1.30;;;;;;;;;;5001119;28;20026;-77
2022/02/08 15:20:25;;;;;;;9.20;1.80;;;;;;;;;;5000345;28;20070;-77
2022/02/08 15:22:51;;;;;;;8.20;1.53;;;;;;;;;;5001334;28;20036;-75
2022/02/08 15:25:16;;;;;;;6.13;1.43;;;;;;;;;;5000319;28;20617;-75
2022/02/08 15:27:43;;;;;;;4.13;1.63;;;;;;;;;;5000671;28;20025;-77
2022/02/08 15:30:09;;;;;;;7.70;1.43;;;;;;;;;;5000126;28;20030;-75
2022/02/08 15:32:35;;;;;;;6.77;1.80;;;;;;;;;;5000782;28;20034;-75
2022/02/08 15:35:01;;;;;;;8.73;1.53;;;;;;;;;;4999993;28;20463;-75
2022/02/08 15:37:30;;;;;;;6.43;1.30;;;;;;;;;;4998324;28;20018;-76
2022/02/08 15:39:56;;;;;;;13.27;1.93;;;;;;;;;;5000125;28;20120;-76
2022/02/08 15:42:28;;;;;;;4.93;1.63;;;;;;;;;;5000568;28;20493;-76
2022/02/08 15:44:55;;;;;;;8.13;1.43;;;;;;;;;;5000001;28;20338;-76
2022/02/08 15:47:21;;;;;;;6.20;1.50;;;;;;;;;;5000149;28;20053;-75
2022/02/08 15:49:56;;;;;;;19.60;1.40;;;;;;;;;;4998256;28;20473;-76
2022/02/08 15:52:41;;;;;;;5.57;1.63;;;;;;;;;;4996780;28;20105;-76
2022/02/08 15:55:13;;;;;;;8.23;1.50;;;;;;;;;;4996313;28;20529;-76
2022/02/08 16:06:49;;;;;;;7.63;2.37;;;;;;;;;;4997093;28;20459;-76
2022/02/08 16:08:30;;;;;;;10.03;2.63;;;;;;;;;;4999470;28;20365;-76
2022/02/08 16:13:52;;;;;;;9.13;2.37;;;;;;;;;;4995107;28;20152;-76
2022/02/08 16:18:52;;;;;;;7.07;1.97;;;;;;;;;;4995415;28;20026;-76
2022/02/08 16:24:09;;;;;;;7.53;2.53;;;;;;;;;;4996942;28;20060;-76
2022/02/08 16:27:11;;;;;;;14.27;3.70;;;;;;;;;;4996599;28;20028;-76
2022/02/08 16:53:32;;;;;;;7.47;3.00;;;;;;;;;;5013415;28;20626;-76
2022/02/08 17:00:54;;;;;;;9.13;3.13;;;;;;;;;;5008035;28;20382;-75
2022/02/08 17:03:25;;;;;;;13.27;2.93;;;;;;;;;;5012170;28;20057;-74
2022/02/08 17:05:50;;;;;;;13.43;3.90;;;;;;;;;;5007065;28;20126;-75
2022/02/08 17:08:16;;;;;;;7.87;3.07;;;;;;;;;;5011964;28;20124;-75
2022/02/08 17:10:46;;;;;;;10.43;3.00;;;;;;;;;;5011151;28;20072;-75
2022/02/08 17:47:56;;;;;;;21.10;6.53;;;;;;;;;;5011738;28;20025;-74
2022/02/08 17:50:21;;;;;;;14.23;5.90;;;;;;;;;;5011101;28;20082;-73
2022/02/08 17:52:47;;;;;;;16.50;6.43;;;;;;;;;;5010914;28;20025;-74
2022/02/08 17:55:13;;;;;;;13.23;6.20;;;;;;;;;;5003966;28;20041;-74
2022/02/08 17:57:38;;;;;;;15.97;7.33;;;;;;;;;;4995434;28;20064;-74
2022/02/08 18:00:05;;;;;;;19.90;8.03;;;;;;;;;;4994373;28;20577;-73
2022/02/08 18:02:30;;;;;;;15.43;6.40;;;;;;;;;;4993801;28;20418;-73
2022/02/08 18:04:59;;;;;;;14.17;6.17;;;;;;;;;;4994444;28;20030;-75
2022/02/08 18:07:25;;;;;;;18.17;6.93;;;;;;;;;;4994221;28;20025;-74
2022/02/08 18:09:52;;;;;;;17.40;7.50;;;;;;;;;;4995406;28;20239;-74
2022/02/08 18:12:19;;;;;;;24.40;7.17;;;;;;;;;;4994223;28;20018;-75
2022/02/08 18:14:49;;;;;;;16.87;6.67;;;;;;;;;;4995291;28;20486;-74
2022/02/08 18:17:20;;;;;;;12.17;5.53;;;;;;;;;;4998716;28;20532;-73
2022/02/08 18:19:55;;;;;;;13.93;5.60;;;;;;;;;;4998984;28;20319;-74
2022/02/08 18:25:16;;;;;;;14.03;5.97;;;;;;;;;;4998758;28;20061;-74
2022/02/08 18:57:34;;;;;;;16.07;7.07;;;;;;;;;;5015382;28;20029;-74
2022/02/08 19:08:45;;;;;;;16.30;6.23;;;;;;;;;;5004424;28;20124;-76
2022/02/08 19:23:50;;;;;;;24.10;8.87;;;;;;;;;;5014702;28;20029;-76
2022/02/08 19:26:17;;;;;;;24.53;8.87;;;;;;;;;;5001635;28;20111;-76
2022/02/08 19:28:43;;;;;;;21.83;9.13;;;;;;;;;;4997104;28;20141;-76
2022/02/08 19:31:08;;;;;;;19.47;7.70;;;;;;;;;;4996605;28;20050;-76
2022/02/08 19:33:33;;;;;;;15.57;6.93;;;;;;;;;;4998234;28;20101;-76
2022/02/08 19:35:58;;;;;;;15.70;7.47;;;;;;;;;;4997692;28;20478;-76
2022/02/08 19:38:26;;;;;;;20.53;6.80;;;;;;;;;;4997390;28;20030;-75
2022/02/08 19:40:52;;;;;;;20.23;8.17;;;;;;;;;;4995890;28;20351;-76
2022/02/08 19:43:17;;;;;;;18.93;7.97;;;;;;;;;;4997743;28;20029;-76
2022/02/08 19:45:43;;;;;;;23.83;8.83;;;;;;;;;;4997722;28;20353;-76
2022/02/08 19:48:09;;;;;;;19.30;8.23;;;;;;;;;;4996852;28;20029;-76
2022/02/08 19:50:36;;;;;;;15.57;8.10;;;;;;;;;;4997142;28;20257;-76
2022/02/08 19:53:02;;;;;;;18.93;9.40;;;;;;;;;;4998679;28;20113;-76
2022/02/08 19:58:01;;;;;;;20.55;9.20;;;;;;;;;;4990964;28;20285;-75
2022/02/08 20:00:31;;;;;;;17.83;8.37;;;;;;;;;;5001390;28;20071;-79
2022/02/08 20:02:59;;;;;;;23.10;8.80;;;;;;;;;;4999447;28;20046;-76
2022/02/08 20:05:29;;;;;;;17.67;8.00;;;;;;;;;;4995471;28;20486;-77
2022/02/08 20:07:54;;;;;;;19.73;8.17;;;;;;;;;;5000065;28;20026;-77
2022/02/08 20:10:20;;;;;;;19.20;9.40;;;;;;;;;;4999115;28;20565;-74
2022/02/08 20:12:45;;;;;;;29.33;10.03;;;;;;;;;;5000176;28;20119;-75
2022/02/08 20:15:10;;;;;;;16.10;7.80;;;;;;;;;;4999176;28;20409;-74
2022/02/08 20:17:36;;;;;;;21.23;9.40;;;;;;;;;;4999462;28;20187;-75
2022/02/08 20:20:08;;;;;;;17.73;7.87;;;;;;;;;;5000146;28;20026;-74
2022/02/08 20:22:35;;;;;;;20.17;9.10;;;;;;;;;;4999341;28;20018;-75
2022/02/08 20:25:05;;;;;;;20.63;9.60;;;;;;;;;;4998783;28;20049;-76
2022/02/08 20:27:38;;;;;;;20.97;9.10;;;;;;;;;;4999548;28;20173;-76
2022/02/08 20:30:03;;;;;;;17.10;8.67;;;;;;;;;;4998990;28;20430;-76
2022/02/08 20:32:29;;;;;;;23.83;9.27;;;;;;;;;;5000034;28;20088;-76
2022/02/08 20:34:54;;;;;;;19.20;8.63;;;;;;;;;;4998847;28;20188;-75
2022/02/08 20:37:19;;;;;;;17.83;8.47;;;;;;;;;;4999617;28;20076;-73
2022/02/08 20:39:45;;;;;;;21.03;9.57;;;;;;;;;;4998084;28;20025;-73
2022/02/08 20:42:10;;;;;;;19.73;8.23;;;;;;;;;;4999878;28;20026;-76
2022/02/08 20:44:38;;;;;;;19.43;7.90;;;;;;;;;;4998008;28;20029;-74
2022/02/08 20:47:14;;;;;;;17.07;7.67;;;;;;;;;;4999603;28;20021;-74
2022/02/08 20:49:39;;;;;;;17.97;8.20;;;;;;;;;;4999127;28;20248;-75
2022/02/08 20:52:04;;;;;;;18.23;7.37;;;;;;;;;;4998520;28;20096;-76
2022/02/08 20:54:37;;;;;;;21.27;7.97;;;;;;;;;;4998224;28;20113;-76
2022/02/08 20:57:10;;;;;;;18.57;6.87;;;;;;;;;;4998482;28;20105;-76
2022/02/08 20:59:35;;;;;;;16.00;7.30;;;;;;;;;;4997272;28;20398;-75
2022/02/08 21:02:01;;;;;;;17.60;5.63;;;;;;;;;;5001212;28;20041;-75
2022/02/08 21:04:29;;;;;;;15.30;7.33;;;;;;;;;;4998550;28;20523;-74
2022/02/08 21:06:55;;;;;;;15.23;6.90;;;;;;;;;;4999363;28;20469;-75
2022/02/08 21:09:22;;;;;;;18.70;6.47;;;;;;;;;;4999314;28;20437;-75
2022/02/08 21:11:55;;;;;;;13.47;6.13;;;;;;;;;;4998684;28;20056;-75
2022/02/08 21:14:20;;;;;;;13.27;6.13;;;;;;;;;;4997483;28;20022;-75
2022/02/08 21:16:47;;;;;;;11.90;4.63;;;;;;;;;;4998830;28;20079;-75
2022/02/08 21:19:14;;;;;;;9.97;5.27;;;;;;;;;;4998411;28;20108;-75
2022/02/08 21:21:39;;;;;;;10.70;4.43;;;;;;;;;;4997820;28;20324;-74
2022/02/08 21:24:05;;;;;;;11.60;5.10;;;;;;;;;;4998215;28;20261;-74
2022/02/08 21:26:34;;;;;;;10.57;4.13;;;;;;;;;;4996973;28;20044;-74
2022/02/08 21:50:31;;;;;;;13.80;6.00;;;;;;;;;;4991585;28;20325;-76
2022/02/08 21:52:51;;;;;;;15.37;5.63;;;;;;;;;;4991565;28;20267;-73
2022/02/08 21:55:17;;;;;;;14.53;5.87;;;;;;;;;;4988254;28;20022;-74
2022/02/08 21:57:49;;;;;;;13.50;5.50;;;;;;;;;;4994961;28;20026;-73
2022/02/08 22:00:15;;;;;;;13.43;5.43;;;;;;;;;;5000516;28;20029;-73
2022/02/08 22:02:40;;;;;;;9.47;4.60;;;;;;;;;;4995887;28;20425;-73
2022/02/08 22:05:07;;;;;;;15.83;6.10;;;;;;;;;;4996734;28;20643;-74
2022/02/08 22:07:33;;;;;;;12.90;5.83;;;;;;;;;;4988204;28;20438;-73
2022/02/08 22:10:08;;;;;;;15.77;5.90;;;;;;;;;;4990541;28;20149;-73
2022/02/08 22:23:09;;;;;;;17.20;6.47;;;;;;;;;;4989543;28;20034;-73
2022/02/08 22:31:00;;;;;;;15.20;5.20;;;;;;;;;;5009741;28;20120;-74
2022/02/08 22:33:33;;;;;;;10.55;5.75;;;;;;;;;;5012568;28;20034;-74
2022/02/08 22:36:10;;;;;;;19.03;5.70;;;;;;;;;;5010428;28;20176;-74
2022/02/08 22:38:41;;;;;;;13.67;5.87;;;;;;;;;;5013453;28;20475;-74
2022/02/08 22:41:13;;;;;;;12.83;5.80;;;;;;;;;;5016843;28;20474;-74
2022/02/08 22:43:46;;;;;;;13.83;5.30;;;;;;;;;;5015125;28;20231;-75
2022/02/08 22:46:13;;;;;;;14.57;5.80;;;;;;;;;;5010476;28;20079;-74
2022/02/08 22:48:40;;;;;;;12.17;5.83;;;;;;;;;;5002276;28;20310;-76
2022/02/08 22:51:05;;;;;;;10.87;5.20;;;;;;;;;;5005245;28;20033;-76
2022/02/08 22:53:30;;;;;;;14.10;5.13;;;;;;;;;;5003182;28;20537;-76
2022/02/08 22:55:57;;;;;;;13.60;5.40;;;;;;;;;;5002347;28;20565;-76
2022/02/08 22:58:22;;;;;;;13.13;5.03;;;;;;;;;;5002001;28;20040;-75
2022/02/08 23:00:47;;;;;;;13.50;5.53;;;;;;;;;;5001785;28;20025;-75
2022/02/08 23:03:13;;;;;;;14.70;5.07;;;;;;;;;;5008745;28;20045;-76
2022/02/08 23:05:39;;;;;;;12.60;5.33;;;;;;;;;;4997894;28;20037;-75
2022/02/08 23:08:04;;;;;;;16.67;5.67;;;;;;;;;;4993423;28;20458;-74
2022/02/08 23:10:45;;;;;;;20.47;5.00;;;;;;;;;;4989661;28;20025;-74
2022/02/08 23:13:17;;;;;;;10.77;3.83;;;;;;;;;;4984786;28;20022;-74